sensor_id;sensor_type;location;lat;lon;timestamp;P1;durP1;ratioP1;P2;durP2;ratioP2
58366;SDS011;57745;42.524;12.052;2022-07-21T00:00:00;2.15;;;1.98;;
58366;SDS011;57745;42.524;12.052;2022-07-21T00:02:30;2.25;;;2.05;;
58366;SDS011;57745;42.524;12.052;2022-07-21T00:04:55;2.22;;;2.03;;
58366;SDS011;57745;42.524;12.052;2022-07-21T00:07:21;3.00;;;2.20;;
58366;SDS011;57745;42.524;12.052;2022-07-21T00:09:46;2.63;;;2.40;;
58366;SDS011;57745;42.524;12.052;2022-07-21T00:12:12;2.75;;;2.45;;
58366;SDS011;57745;42.524;12.052;2022-07-21T00:14:37;3.45;;;2.95;;
58366;SDS011;57745;42.524;12.052;2022-07-21T00:17:03;3.00;;;2.80;;
58366;SDS011;57745;42.524;12.052;2022-07-21T00:19:28;3.03;;;2.72;;
58366;SDS011;57745;42.524;12.052;2022-07-21T00:21:54;3.33;;;3.03;;
58366;SDS011;57745;42.524;12.052;2022-07-21T00:24:19;3.83;;;3.03;;
58366;SDS011;57745;42.524;12.052;2022-07-21T00:26:46;3.45;;;3.15;;
58366;SDS011;57745;42.524;12.052;2022-07-21T00:29:11;3.53;;;2.80;;
58366;SDS011;57745;42.524;12.052;2022-07-21T00:31:37;3.30;;;3.00;;
58366;SDS011;57745;42.524;12.052;2022-07-21T00:34:02;3.65;;;3.33;;
58366;SDS011;57745;42.524;12.052;2022-07-21T00:36:27;3.42;;;3.13;;
58366;SDS011;57745;42.524;12.052;2022-07-21T00:38:53;3.10;;;2.90;;
58366;SDS011;57745;42.524;12.052;2022-07-21T00:41:18;4.18;;;3.13;;
58366;SDS011;57745;42.524;12.052;2022-07-21T00:43:44;3.58;;;3.28;;
58366;SDS011;57745;42.524;12.052;2022-07-21T00:46:09;3.60;;;3.10;;
58366;SDS011;57745;42.524;12.052;2022-07-21T00:48:35;3.53;;;3.22;;
58366;SDS011;57745;42.524;12.052;2022-07-21T00:51:00;3.83;;;3.50;;
58366;SDS011;57745;42.524;12.052;2022-07-21T00:53:26;3.92;;;3.63;;
58366;SDS011;57745;42.524;12.052;2022-07-21T00:55:52;3.63;;;3.33;;
58366;SDS011;57745;42.524;12.052;2022-07-21T00:58:17;3.88;;;3.58;;
58366;SDS011;57745;42.524;12.052;2022-07-21T01:00:43;4.28;;;3.88;;
58366;SDS011;57745;42.524;12.052;2022-07-21T01:03:08;4.18;;;3.72;;
58366;SDS011;57745;42.524;12.052;2022-07-21T01:05:34;4.03;;;3.67;;
58366;SDS011;57745;42.524;12.052;2022-07-21T01:07:59;3.95;;;3.65;;
58366;SDS011;57745;42.524;12.052;2022-07-21T01:10:27;5.07;;;4.00;;
58366;SDS011;57745;42.524;12.052;2022-07-21T01:12:53;4.82;;;4.32;;
58366;SDS011;57745;42.524;12.052;2022-07-21T01:15:19;4.85;;;3.90;;
58366;SDS011;57745;42.524;12.052;2022-07-21T01:17:45;4.25;;;3.83;;
58366;SDS011;57745;42.524;12.052;2022-07-21T01:20:14;4.43;;;4.03;;
58366;SDS011;57745;42.524;12.052;2022-07-21T01:22:42;4.20;;;3.85;;
58366;SDS011;57745;42.524;12.052;2022-07-21T01:25:09;4.75;;;4.35;;
58366;SDS011;57745;42.524;12.052;2022-07-21T01:27:36;4.88;;;4.00;;
58366;SDS011;57745;42.524;12.052;2022-07-21T01:30:03;4.75;;;4.28;;
58366;SDS011;57745;42.524;12.052;2022-07-21T01:32:32;5.50;;;4.63;;
58366;SDS011;57745;42.524;12.052;2022-07-21T01:34:57;5.20;;;4.70;;
58366;SDS011;57745;42.524;12.052;2022-07-21T01:37:23;6.75;;;4.90;;
58366;SDS011;57745;42.524;12.052;2022-07-21T01:39:53;4.85;;;4.45;;
58366;SDS011;57745;42.524;12.052;2022-07-21T01:42:37;4.97;;;4.57;;
58366;SDS011;57745;42.524;12.052;2022-07-21T01:45:03;5.00;;;4.60;;
58366;SDS011;57745;42.524;12.052;2022-07-21T01:47:29;5.15;;;4.57;;
58366;SDS011;57745;42.524;12.052;2022-07-21T01:49:55;4.75;;;4.05;;
58366;SDS011;57745;42.524;12.052;2022-07-21T01:52:20;5.18;;;4.72;;
58366;SDS011;57745;42.524;12.052;2022-07-21T01:54:46;4.57;;;4.22;;
58366;SDS011;57745;42.524;12.052;2022-07-21T01:57:11;4.30;;;3.90;;
58366;SDS011;57745;42.524;12.052;2022-07-21T01:59:37;4.63;;;4.22;;
58366;SDS011;57745;42.524;12.052;2022-07-21T02:02:02;4.10;;;3.80;;
58366;SDS011;57745;42.524;12.052;2022-07-21T02:04:28;4.47;;;4.07;;
58366;SDS011;57745;42.524;12.052;2022-07-21T02:06:54;4.10;;;3.80;;
58366;SDS011;57745;42.524;12.052;2022-07-21T02:09:19;4.35;;;3.97;;
58366;SDS011;57745;42.524;12.052;2022-07-21T02:11:45;4.10;;;3.70;;
58366;SDS011;57745;42.524;12.052;2022-07-21T02:14:10;4.05;;;3.75;;
58366;SDS011;57745;42.524;12.052;2022-07-21T02:16:36;4.38;;;4.07;;
58366;SDS011;57745;42.524;12.052;2022-07-21T02:19:01;4.15;;;3.85;;
58366;SDS011;57745;42.524;12.052;2022-07-21T02:21:28;4.10;;;3.78;;
58366;SDS011;57745;42.524;12.052;2022-07-21T02:23:53;4.40;;;3.80;;
58366;SDS011;57745;42.524;12.052;2022-07-21T02:26:19;4.00;;;3.70;;
58366;SDS011;57745;42.524;12.052;2022-07-21T02:28:44;4.05;;;3.75;;
58366;SDS011;57745;42.524;12.052;2022-07-21T02:31:10;4.80;;;4.35;;
58366;SDS011;57745;42.524;12.052;2022-07-21T02:33:35;4.03;;;3.72;;
58366;SDS011;57745;42.524;12.052;2022-07-21T02:36:01;4.75;;;3.50;;
58366;SDS011;57745;42.524;12.052;2022-07-21T02:38:27;4.45;;;4.07;;
58366;SDS011;57745;42.524;12.052;2022-07-21T02:40:53;3.70;;;3.40;;
58366;SDS011;57745;42.524;12.052;2022-07-21T02:43:19;3.30;;;3.00;;
58366;SDS011;57745;42.524;12.052;2022-07-21T02:45:44;3.97;;;3.67;;
58366;SDS011;57745;42.524;12.052;2022-07-21T02:48:10;3.25;;;3.03;;
58366;SDS011;57745;42.524;12.052;2022-07-21T02:50:39;3.55;;;3.25;;
58366;SDS011;57745;42.524;12.052;2022-07-21T02:53:14;3.03;;;2.83;;
58366;SDS011;57745;42.524;12.052;2022-07-21T02:55:44;3.60;;;3.05;;
58366;SDS011;57745;42.524;12.052;2022-07-21T02:58:15;4.22;;;3.08;;
58366;SDS011;57745;42.524;12.052;2022-07-21T03:00:53;3.20;;;2.90;;
58366;SDS011;57745;42.524;12.052;2022-07-21T03:03:21;3.38;;;3.13;;
58366;SDS011;57745;42.524;12.052;2022-07-21T03:05:49;2.70;;;2.50;;
58366;SDS011;57745;42.524;12.052;2022-07-21T03:08:15;2.85;;;2.65;;
58366;SDS011;57745;42.524;12.052;2022-07-21T03:10:41;3.63;;;3.33;;
58366;SDS011;57745;42.524;12.052;2022-07-21T03:13:07;3.15;;;2.90;;
58366;SDS011;57745;42.524;12.052;2022-07-21T03:15:33;3.03;;;2.75;;
58366;SDS011;57745;42.524;12.052;2022-07-21T03:17:59;4.47;;;2.70;;
58366;SDS011;57745;42.524;12.052;2022-07-21T03:20:26;2.75;;;2.55;;
58366;SDS011;57745;42.524;12.052;2022-07-21T03:22:52;3.35;;;3.13;;
58366;SDS011;57745;42.524;12.052;2022-07-21T03:25:18;4.00;;;2.80;;
58366;SDS011;57745;42.524;12.052;2022-07-21T03:27:45;3.08;;;2.75;;
58366;SDS011;57745;42.524;12.052;2022-07-21T03:30:11;2.78;;;2.58;;
58366;SDS011;57745;42.524;12.052;2022-07-21T03:32:37;3.15;;;2.60;;
58366;SDS011;57745;42.524;12.052;2022-07-21T03:35:03;3.53;;;2.28;;
58366;SDS011;57745;42.524;12.052;2022-07-21T03:37:30;3.20;;;2.90;;
58366;SDS011;57745;42.524;12.052;2022-07-21T03:39:56;2.83;;;2.63;;
58366;SDS011;57745;42.524;12.052;2022-07-21T03:42:21;3.25;;;2.95;;
58366;SDS011;57745;42.524;12.052;2022-07-21T03:44:47;2.80;;;2.60;;
58366;SDS011;57745;42.524;12.052;2022-07-21T03:47:12;3.03;;;2.60;;
58366;SDS011;57745;42.524;12.052;2022-07-21T03:49:38;2.83;;;2.60;;
58366;SDS011;57745;42.524;12.052;2022-07-21T03:52:04;2.92;;;2.65;;
58366;SDS011;57745;42.524;12.052;2022-07-21T03:54:30;3.83;;;2.78;;
58366;SDS011;57745;42.524;12.052;2022-07-21T03:56:55;2.97;;;2.67;;
58366;SDS011;57745;42.524;12.052;2022-07-21T03:59:21;3.28;;;2.90;;
58366;SDS011;57745;42.524;12.052;2022-07-21T04:01:46;3.45;;;2.63;;
58366;SDS011;57745;42.524;12.052;2022-07-21T04:04:12;3.75;;;2.60;;
58366;SDS011;57745;42.524;12.052;2022-07-21T04:06:37;3.00;;;2.67;;
58366;SDS011;57745;42.524;12.052;2022-07-21T04:09:03;3.13;;;2.83;;
58366;SDS011;57745;42.524;12.052;2022-07-21T04:11:29;3.50;;;3.03;;
58366;SDS011;57745;42.524;12.052;2022-07-21T04:13:55;5.40;;;2.97;;
58366;SDS011;57745;42.524;12.052;2022-07-21T04:16:21;2.97;;;2.58;;
58366;SDS011;57745;42.524;12.052;2022-07-21T04:18:47;3.92;;;3.10;;
58366;SDS011;57745;42.524;12.052;2022-07-21T04:21:13;3.83;;;2.70;;
58366;SDS011;57745;42.524;12.052;2022-07-21T04:23:38;3.10;;;2.72;;
58366;SDS011;57745;42.524;12.052;2022-07-21T04:26:04;2.78;;;2.42;;
58366;SDS011;57745;42.524;12.052;2022-07-21T04:28:29;3.05;;;2.75;;
58366;SDS011;57745;42.524;12.052;2022-07-21T04:30:55;3.72;;;3.42;;
58366;SDS011;57745;42.524;12.052;2022-07-21T04:33:20;4.18;;;2.75;;
58366;SDS011;57745;42.524;12.052;2022-07-21T04:35:46;3.33;;;2.63;;
58366;SDS011;57745;42.524;12.052;2022-07-21T04:38:12;3.35;;;2.70;;
58366;SDS011;57745;42.524;12.052;2022-07-21T04:40:38;4.35;;;2.92;;
58366;SDS011;57745;42.524;12.052;2022-07-21T04:43:03;3.35;;;2.50;;
58366;SDS011;57745;42.524;12.052;2022-07-21T04:45:29;3.63;;;2.88;;
58366;SDS011;57745;42.524;12.052;2022-07-21T04:47:54;3.10;;;2.90;;
58366;SDS011;57745;42.524;12.052;2022-07-21T04:50:21;4.00;;;2.65;;
58366;SDS011;57745;42.524;12.052;2022-07-21T04:52:54;3.83;;;2.50;;
58366;SDS011;57745;42.524;12.052;2022-07-21T04:55:38;4.70;;;3.00;;
58366;SDS011;57745;42.524;12.052;2022-07-21T04:58:19;4.25;;;2.90;;
58366;SDS011;57745;42.524;12.052;2022-07-21T05:00:49;4.78;;;3.00;;
58366;SDS011;57745;42.524;12.052;2022-07-21T05:03:15;3.08;;;2.78;;
58366;SDS011;57745;42.524;12.052;2022-07-21T05:05:41;3.80;;;2.75;;
58366;SDS011;57745;42.524;12.052;2022-07-21T05:08:06;5.20;;;2.70;;
58366;SDS011;57745;42.524;12.052;2022-07-21T05:10:32;4.10;;;3.25;;
58366;SDS011;57745;42.524;12.052;2022-07-21T05:12:57;4.35;;;2.85;;
58366;SDS011;57745;42.524;12.052;2022-07-21T05:15:23;3.65;;;2.80;;
58366;SDS011;57745;42.524;12.052;2022-07-21T05:17:48;3.80;;;2.85;;
58366;SDS011;57745;42.524;12.052;2022-07-21T05:20:14;3.50;;;3.15;;
58366;SDS011;57745;42.524;12.052;2022-07-21T05:22:39;5.40;;;3.13;;
58366;SDS011;57745;42.524;12.052;2022-07-21T05:25:05;5.15;;;2.75;;
58366;SDS011;57745;42.524;12.052;2022-07-21T05:27:31;4.18;;;3.05;;
58366;SDS011;57745;42.524;12.052;2022-07-21T05:29:57;4.75;;;3.03;;
58366;SDS011;57745;42.524;12.052;2022-07-21T05:32:23;3.97;;;3.05;;
58366;SDS011;57745;42.524;12.052;2022-07-21T05:34:48;3.65;;;2.95;;
58366;SDS011;57745;42.524;12.052;2022-07-21T05:37:14;4.25;;;3.00;;
58366;SDS011;57745;42.524;12.052;2022-07-21T05:39:39;7.03;;;2.83;;
58366;SDS011;57745;42.524;12.052;2022-07-21T05:42:05;4.88;;;3.45;;
58366;SDS011;57745;42.524;12.052;2022-07-21T05:44:31;6.07;;;3.28;;
58366;SDS011;57745;42.524;12.052;2022-07-21T05:46:56;4.75;;;3.50;;
58366;SDS011;57745;42.524;12.052;2022-07-21T05:49:22;3.80;;;2.80;;
58366;SDS011;57745;42.524;12.052;2022-07-21T05:51:48;6.68;;;3.30;;
58366;SDS011;57745;42.524;12.052;2022-07-21T05:54:13;4.03;;;2.90;;
58366;SDS011;57745;42.524;12.052;2022-07-21T05:56:40;6.57;;;3.08;;
58366;SDS011;57745;42.524;12.052;2022-07-21T05:59:05;5.35;;;3.15;;
58366;SDS011;57745;42.524;12.052;2022-07-21T06:01:30;3.22;;;3.00;;
58366;SDS011;57745;42.524;12.052;2022-07-21T06:03:56;4.03;;;3.28;;
58366;SDS011;57745;42.524;12.052;2022-07-21T06:06:21;4.38;;;3.05;;
58366;SDS011;57745;42.524;12.052;2022-07-21T06:08:48;5.00;;;2.88;;
58366;SDS011;57745;42.524;12.052;2022-07-21T06:11:14;4.15;;;2.80;;
58366;SDS011;57745;42.524;12.052;2022-07-21T06:13:42;3.67;;;2.80;;
58366;SDS011;57745;42.524;12.052;2022-07-21T06:16:08;6.20;;;3.33;;
58366;SDS011;57745;42.524;12.052;2022-07-21T06:18:34;3.50;;;2.88;;
58366;SDS011;57745;42.524;12.052;2022-07-21T06:21:00;5.65;;;2.88;;
58366;SDS011;57745;42.524;12.052;2022-07-21T06:23:27;5.80;;;3.05;;
58366;SDS011;57745;42.524;12.052;2022-07-21T06:25:53;4.20;;;2.97;;
58366;SDS011;57745;42.524;12.052;2022-07-21T06:28:19;5.32;;;3.30;;
58366;SDS011;57745;42.524;12.052;2022-07-21T06:30:45;3.08;;;2.85;;
58366;SDS011;57745;42.524;12.052;2022-07-21T06:33:10;4.20;;;3.40;;
58366;SDS011;57745;42.524;12.052;2022-07-21T06:35:37;3.58;;;2.80;;
58366;SDS011;57745;42.524;12.052;2022-07-21T06:38:03;4.03;;;2.75;;
58366;SDS011;57745;42.524;12.052;2022-07-21T06:40:29;3.55;;;2.40;;
58366;SDS011;57745;42.524;12.052;2022-07-21T06:42:55;3.40;;;2.90;;
58366;SDS011;57745;42.524;12.052;2022-07-21T06:45:21;3.90;;;2.78;;
58366;SDS011;57745;42.524;12.052;2022-07-21T06:47:46;2.88;;;2.55;;
58366;SDS011;57745;42.524;12.052;2022-07-21T06:50:12;3.38;;;2.90;;
58366;SDS011;57745;42.524;12.052;2022-07-21T06:52:38;2.97;;;2.65;;
58366;SDS011;57745;42.524;12.052;2022-07-21T06:55:04;3.20;;;2.90;;
58366;SDS011;57745;42.524;12.052;2022-07-21T06:57:32;3.80;;;2.97;;
58366;SDS011;57745;42.524;12.052;2022-07-21T06:59:59;3.65;;;2.65;;
58366;SDS011;57745;42.524;12.052;2022-07-21T07:02:24;2.70;;;2.50;;
58366;SDS011;57745;42.524;12.052;2022-07-21T07:04:50;3.38;;;2.60;;
58366;SDS011;57745;42.524;12.052;2022-07-21T07:07:15;3.25;;;2.67;;
58366;SDS011;57745;42.524;12.052;2022-07-21T07:09:40;3.17;;;2.88;;
58366;SDS011;57745;42.524;12.052;2022-07-21T07:12:06;3.75;;;2.67;;
58366;SDS011;57745;42.524;12.052;2022-07-21T07:14:34;2.70;;;2.50;;
58366;SDS011;57745;42.524;12.052;2022-07-21T07:17:00;2.80;;;2.60;;
58366;SDS011;57745;42.524;12.052;2022-07-21T07:19:27;3.70;;;3.40;;
58366;SDS011;57745;42.524;12.052;2022-07-21T07:21:54;3.78;;;2.33;;
58366;SDS011;57745;42.524;12.052;2022-07-21T07:24:19;4.65;;;3.10;;
58366;SDS011;57745;42.524;12.052;2022-07-21T07:26:45;3.22;;;2.70;;
58366;SDS011;57745;42.524;12.052;2022-07-21T07:29:10;3.10;;;2.83;;
58366;SDS011;57745;42.524;12.052;2022-07-21T07:31:36;3.17;;;2.65;;
58366;SDS011;57745;42.524;12.052;2022-07-21T07:34:02;2.92;;;2.72;;
58366;SDS011;57745;42.524;12.052;2022-07-21T07:36:28;3.35;;;2.97;;
58366;SDS011;57745;42.524;12.052;2022-07-21T07:38:55;3.25;;;2.95;;
58366;SDS011;57745;42.524;12.052;2022-07-21T07:41:22;4.03;;;2.92;;
58366;SDS011;57745;42.524;12.052;2022-07-21T07:43:49;3.42;;;2.80;;
58366;SDS011;57745;42.524;12.052;2022-07-21T07:46:16;7.13;;;2.88;;
58366;SDS011;57745;42.524;12.052;2022-07-21T07:48:43;3.78;;;3.17;;
58366;SDS011;57745;42.524;12.052;2022-07-21T07:51:09;3.63;;;3.00;;
58366;SDS011;57745;42.524;12.052;2022-07-21T07:53:36;4.53;;;3.20;;
58366;SDS011;57745;42.524;12.052;2022-07-21T07:56:02;4.35;;;2.97;;
58366;SDS011;57745;42.524;12.052;2022-07-21T07:58:27;4.55;;;3.30;;
58366;SDS011;57745;42.524;12.052;2022-07-21T08:00:53;4.53;;;2.90;;
58366;SDS011;57745;42.524;12.052;2022-07-21T08:03:19;3.38;;;3.08;;
58366;SDS011;57745;42.524;12.052;2022-07-21T08:05:44;2.97;;;2.78;;
58366;SDS011;57745;42.524;12.052;2022-07-21T08:08:10;3.78;;;3.08;;
58366;SDS011;57745;42.524;12.052;2022-07-21T08:10:36;5.07;;;3.00;;
58366;SDS011;57745;42.524;12.052;2022-07-21T08:13:01;3.97;;;3.67;;
58366;SDS011;57745;42.524;12.052;2022-07-21T08:15:27;5.57;;;3.15;;
58366;SDS011;57745;42.524;12.052;2022-07-21T08:17:53;4.70;;;3.17;;
58366;SDS011;57745;42.524;12.052;2022-07-21T08:20:18;4.72;;;3.90;;
58366;SDS011;57745;42.524;12.052;2022-07-21T08:22:43;3.85;;;3.40;;
58366;SDS011;57745;42.524;12.052;2022-07-21T08:25:09;7.15;;;3.67;;
58366;SDS011;57745;42.524;12.052;2022-07-21T08:27:34;3.60;;;3.30;;
58366;SDS011;57745;42.524;12.052;2022-07-21T08:30:00;5.78;;;3.47;;
58366;SDS011;57745;42.524;12.052;2022-07-21T08:32:25;5.47;;;3.33;;
58366;SDS011;57745;42.524;12.052;2022-07-21T08:34:51;4.57;;;3.53;;
58366;SDS011;57745;42.524;12.052;2022-07-21T08:37:18;7.32;;;3.50;;
58366;SDS011;57745;42.524;12.052;2022-07-21T08:39:45;5.15;;;3.42;;
58366;SDS011;57745;42.524;12.052;2022-07-21T08:42:12;3.90;;;3.60;;
58366;SDS011;57745;42.524;12.052;2022-07-21T08:44:39;5.40;;;4.07;;
58366;SDS011;57745;42.524;12.052;2022-07-21T08:47:04;5.10;;;3.78;;
58366;SDS011;57745;42.524;12.052;2022-07-21T08:49:31;4.22;;;3.83;;
58366;SDS011;57745;42.524;12.052;2022-07-21T08:52:02;5.65;;;3.70;;
58366;SDS011;57745;42.524;12.052;2022-07-21T08:54:30;4.32;;;3.63;;
58366;SDS011;57745;42.524;12.052;2022-07-21T08:56:57;4.88;;;4.15;;
58366;SDS011;57745;42.524;12.052;2022-07-21T08:59:23;7.10;;;3.65;;
58366;SDS011;57745;42.524;12.052;2022-07-21T09:01:48;6.22;;;3.75;;
58366;SDS011;57745;42.524;12.052;2022-07-21T09:06:57;4.25;;;3.17;;
58366;SDS011;57745;42.524;12.052;2022-07-21T09:09:28;5.93;;;3.97;;
58366;SDS011;57745;42.524;12.052;2022-07-21T09:11:56;4.43;;;3.70;;
58366;SDS011;57745;42.524;12.052;2022-07-21T09:14:27;4.32;;;3.92;;
58366;SDS011;57745;42.524;12.052;2022-07-21T09:16:56;7.18;;;4.32;;
58366;SDS011;57745;42.524;12.052;2022-07-21T09:19:31;4.70;;;4.30;;
58366;SDS011;57745;42.524;12.052;2022-07-21T09:22:00;4.25;;;3.85;;
58366;SDS011;57745;42.524;12.052;2022-07-21T09:24:32;3.63;;;3.33;;
58366;SDS011;57745;42.524;12.052;2022-07-21T09:27:12;5.72;;;4.15;;
58366;SDS011;57745;42.524;12.052;2022-07-21T09:34:45;5.10;;;3.92;;
58366;SDS011;57745;42.524;12.052;2022-07-21T09:37:12;4.60;;;4.20;;
58366;SDS011;57745;42.524;12.052;2022-07-21T09:44:59;6.88;;;4.82;;
58366;SDS011;57745;42.524;12.052;2022-07-21T09:47:28;5.75;;;5.25;;
58366;SDS011;57745;42.524;12.052;2022-07-21T09:49:56;7.28;;;4.47;;
58366;SDS011;57745;42.524;12.052;2022-07-21T09:52:27;5.45;;;5.05;;
58366;SDS011;57745;42.524;12.052;2022-07-21T09:54:56;5.05;;;4.55;;
58366;SDS011;57745;42.524;12.052;2022-07-21T09:57:24;4.90;;;4.40;;
58366;SDS011;57745;42.524;12.052;2022-07-21T09:59:51;6.85;;;4.88;;
58366;SDS011;57745;42.524;12.052;2022-07-21T10:02:18;6.97;;;4.70;;
58366;SDS011;57745;42.524;12.052;2022-07-21T10:07:31;5.45;;;4.65;;
58366;SDS011;57745;42.524;12.052;2022-07-21T10:09:58;8.32;;;5.10;;
58366;SDS011;57745;42.524;12.052;2022-07-21T10:12:24;5.63;;;4.55;;
58366;SDS011;57745;42.524;12.052;2022-07-21T10:14:51;6.63;;;5.25;;
58366;SDS011;57745;42.524;12.052;2022-07-21T10:17:18;5.72;;;4.90;;
58366;SDS011;57745;42.524;12.052;2022-07-21T10:20:04;5.50;;;5.00;;
58366;SDS011;57745;42.524;12.052;2022-07-21T10:25:37;5.90;;;4.90;;
58366;SDS011;57745;42.524;12.052;2022-07-21T10:30:43;5.70;;;5.10;;
58366;SDS011;57745;42.524;12.052;2022-07-21T10:33:11;6.35;;;5.15;;
58366;SDS011;57745;42.524;12.052;2022-07-21T10:35:41;5.70;;;5.20;;
58366;SDS011;57745;42.524;12.052;2022-07-21T10:38:24;7.65;;;5.72;;
58366;SDS011;57745;42.524;12.052;2022-07-21T10:40:54;5.82;;;5.32;;
58366;SDS011;57745;42.524;12.052;2022-07-21T10:45:51;7.15;;;5.45;;
58366;SDS011;57745;42.524;12.052;2022-07-21T10:53:35;5.57;;;5.03;;
58366;SDS011;57745;42.524;12.052;2022-07-21T10:56:01;6.70;;;5.30;;
58366;SDS011;57745;42.524;12.052;2022-07-21T10:58:30;6.63;;;5.00;;
58366;SDS011;57745;42.524;12.052;2022-07-21T11:00:57;6.22;;;5.47;;
58366;SDS011;57745;42.524;12.052;2022-07-21T11:03:45;5.97;;;5.38;;
58366;SDS011;57745;42.524;12.052;2022-07-21T11:06:26;5.85;;;4.93;;
58366;SDS011;57745;42.524;12.052;2022-07-21T11:11:30;5.82;;;5.00;;
58366;SDS011;57745;42.524;12.052;2022-07-21T11:14:02;5.53;;;5.03;;
58366;SDS011;57745;42.524;12.052;2022-07-21T11:19:06;5.50;;;4.45;;
58366;SDS011;57745;42.524;12.052;2022-07-21T11:21:52;5.60;;;5.00;;
58366;SDS011;57745;42.524;12.052;2022-07-21T11:24:18;6.07;;;4.78;;
58366;SDS011;57745;42.524;12.052;2022-07-21T11:26:48;6.35;;;4.82;;
58366;SDS011;57745;42.524;12.052;2022-07-21T11:29:28;7.32;;;4.82;;
58366;SDS011;57745;42.524;12.052;2022-07-21T11:31:54;7.50;;;5.10;;
58366;SDS011;57745;42.524;12.052;2022-07-21T11:34:21;6.38;;;4.88;;
58366;SDS011;57745;42.524;12.052;2022-07-21T11:36:49;5.63;;;5.00;;
58366;SDS011;57745;42.524;12.052;2022-07-21T11:39:23;6.35;;;4.78;;
58366;SDS011;57745;42.524;12.052;2022-07-21T11:41:49;6.00;;;4.43;;
58366;SDS011;57745;42.524;12.052;2022-07-21T11:44:21;5.22;;;4.45;;
58366;SDS011;57745;42.524;12.052;2022-07-21T11:47:00;6.22;;;5.00;;
58366;SDS011;57745;42.524;12.052;2022-07-21T11:49:27;5.82;;;4.50;;
58366;SDS011;57745;42.524;12.052;2022-07-21T11:51:53;5.57;;;4.72;;
58366;SDS011;57745;42.524;12.052;2022-07-21T11:54:31;5.53;;;4.43;;
58366;SDS011;57745;42.524;12.052;2022-07-21T11:56:58;4.75;;;4.07;;
58366;SDS011;57745;42.524;12.052;2022-07-21T11:59:25;7.63;;;4.80;;
58366;SDS011;57745;42.524;12.052;2022-07-21T12:01:53;6.55;;;4.60;;
58366;SDS011;57745;42.524;12.052;2022-07-21T12:07:25;5.65;;;4.60;;
58366;SDS011;57745;42.524;12.052;2022-07-21T12:09:53;5.10;;;4.60;;
58366;SDS011;57745;42.524;12.052;2022-07-21T12:12:31;6.80;;;4.22;;
58366;SDS011;57745;42.524;12.052;2022-07-21T12:17:43;4.78;;;4.38;;
58366;SDS011;57745;42.524;12.052;2022-07-21T12:20:15;8.10;;;4.57;;
58366;SDS011;57745;42.524;12.052;2022-07-21T12:22:48;4.45;;;4.03;;
58366;SDS011;57745;42.524;12.052;2022-07-21T12:25:15;5.45;;;4.00;;
58366;SDS011;57745;42.524;12.052;2022-07-21T12:27:43;4.82;;;4.10;;
58366;SDS011;57745;42.524;12.052;2022-07-21T12:30:10;5.35;;;4.10;;
58366;SDS011;57745;42.524;12.052;2022-07-21T12:32:56;4.65;;;4.25;;
58366;SDS011;57745;42.524;12.052;2022-07-21T12:35:29;4.80;;;4.32;;
58366;SDS011;57745;42.524;12.052;2022-07-21T12:37:59;5.20;;;3.95;;
58366;SDS011;57745;42.524;12.052;2022-07-21T12:43:09;6.30;;;4.47;;
58366;SDS011;57745;42.524;12.052;2022-07-21T12:48:18;4.55;;;3.90;;
58366;SDS011;57745;42.524;12.052;2022-07-21T12:50:59;6.45;;;4.35;;
58366;SDS011;57745;42.524;12.052;2022-07-21T12:53:29;4.53;;;4.18;;
58366;SDS011;57745;42.524;12.052;2022-07-21T12:55:56;5.63;;;4.60;;
58366;SDS011;57745;42.524;12.052;2022-07-21T12:58:22;5.63;;;4.70;;
58366;SDS011;57745;42.524;12.052;2022-07-21T13:00:48;4.72;;;4.28;;
58366;SDS011;57745;42.524;12.052;2022-07-21T13:03:13;4.15;;;3.75;;
58366;SDS011;57745;42.524;12.052;2022-07-21T13:05:39;5.05;;;4.65;;
58366;SDS011;57745;42.524;12.052;2022-07-21T13:08:05;4.50;;;4.10;;
58366;SDS011;57745;42.524;12.052;2022-07-21T13:10:31;7.60;;;4.32;;
58366;SDS011;57745;42.524;12.052;2022-07-21T13:12:56;6.63;;;4.30;;
58366;SDS011;57745;42.524;12.052;2022-07-21T13:15:21;4.93;;;4.53;;
58366;SDS011;57745;42.524;12.052;2022-07-21T13:17:47;5.75;;;4.38;;
58366;SDS011;57745;42.524;12.052;2022-07-21T13:20:13;5.13;;;4.57;;
58366;SDS011;57745;42.524;12.052;2022-07-21T13:22:39;4.90;;;4.13;;
58366;SDS011;57745;42.524;12.052;2022-07-21T13:25:07;7.07;;;4.80;;
58366;SDS011;57745;42.524;12.052;2022-07-21T13:27:35;5.35;;;4.43;;
58366;SDS011;57745;42.524;12.052;2022-07-21T13:30:01;4.70;;;4.30;;
58366;SDS011;57745;42.524;12.052;2022-07-21T13:32:32;6.97;;;4.88;;
58366;SDS011;57745;42.524;12.052;2022-07-21T13:34:58;5.68;;;4.57;;
58366;SDS011;57745;42.524;12.052;2022-07-21T13:37:24;5.05;;;4.60;;
58366;SDS011;57745;42.524;12.052;2022-07-21T13:39:49;6.90;;;4.32;;
58366;SDS011;57745;42.524;12.052;2022-07-21T13:42:14;6.40;;;4.53;;
58366;SDS011;57745;42.524;12.052;2022-07-21T13:44:40;4.63;;;4.20;;
58366;SDS011;57745;42.524;12.052;2022-07-21T13:47:05;6.47;;;4.25;;
58366;SDS011;57745;42.524;12.052;2022-07-21T13:49:31;5.80;;;4.43;;
58366;SDS011;57745;42.524;12.052;2022-07-21T13:51:56;6.22;;;4.72;;
58366;SDS011;57745;42.524;12.052;2022-07-21T13:54:22;12.02;;;4.50;;
58366;SDS011;57745;42.524;12.052;2022-07-21T13:56:47;4.90;;;4.32;;
58366;SDS011;57745;42.524;12.052;2022-07-21T13:59:13;5.30;;;4.80;;
58366;SDS011;57745;42.524;12.052;2022-07-21T14:01:38;4.82;;;4.28;;
58366;SDS011;57745;42.524;12.052;2022-07-21T14:04:04;4.90;;;4.50;;
58366;SDS011;57745;42.524;12.052;2022-07-21T14:06:29;4.47;;;4.07;;
58366;SDS011;57745;42.524;12.052;2022-07-21T14:08:55;5.80;;;4.43;;
58366;SDS011;57745;42.524;12.052;2022-07-21T14:11:21;4.57;;;4.15;;
58366;SDS011;57745;42.524;12.052;2022-07-21T14:13:49;5.80;;;4.25;;
58366;SDS011;57745;42.524;12.052;2022-07-21T14:16:14;5.53;;;4.40;;
58366;SDS011;57745;42.524;12.052;2022-07-21T14:18:40;5.35;;;4.45;;
58366;SDS011;57745;42.524;12.052;2022-07-21T14:21:06;4.78;;;4.10;;
58366;SDS011;57745;42.524;12.052;2022-07-21T14:23:31;4.50;;;4.10;;
58366;SDS011;57745;42.524;12.052;2022-07-21T14:25:58;5.68;;;4.43;;
58366;SDS011;57745;42.524;12.052;2022-07-21T14:28:23;5.47;;;4.53;;
58366;SDS011;57745;42.524;12.052;2022-07-21T14:30:49;4.97;;;4.30;;
58366;SDS011;57745;42.524;12.052;2022-07-21T14:33:15;6.63;;;4.38;;
58366;SDS011;57745;42.524;12.052;2022-07-21T14:35:40;6.90;;;4.40;;
58366;SDS011;57745;42.524;12.052;2022-07-21T14:38:06;7.00;;;4.72;;
58366;SDS011;57745;42.524;12.052;2022-07-21T14:40:31;5.78;;;4.20;;
58366;SDS011;57745;42.524;12.052;2022-07-21T14:42:58;6.15;;;3.97;;
58366;SDS011;57745;42.524;12.052;2022-07-21T14:45:23;5.15;;;3.90;;
58366;SDS011;57745;42.524;12.052;2022-07-21T14:47:49;7.72;;;4.38;;
58366;SDS011;57745;42.524;12.052;2022-07-21T14:50:16;6.47;;;4.00;;
58366;SDS011;57745;42.524;12.052;2022-07-21T14:52:42;5.88;;;4.22;;
58366;SDS011;57745;42.524;12.052;2022-07-21T14:55:08;4.63;;;4.00;;
58366;SDS011;57745;42.524;12.052;2022-07-21T14:57:34;6.30;;;4.00;;
58366;SDS011;57745;42.524;12.052;2022-07-21T15:00:01;5.60;;;4.22;;
58366;SDS011;57745;42.524;12.052;2022-07-21T15:02:29;5.78;;;4.05;;
58366;SDS011;57745;42.524;12.052;2022-07-21T15:04:54;4.63;;;4.20;;
58366;SDS011;57745;42.524;12.052;2022-07-21T15:07:20;4.30;;;3.75;;
58366;SDS011;57745;42.524;12.052;2022-07-21T15:09:45;4.53;;;4.13;;
58366;SDS011;57745;42.524;12.052;2022-07-21T15:12:11;4.45;;;4.00;;
58366;SDS011;57745;42.524;12.052;2022-07-21T15:14:37;5.20;;;4.22;;
58366;SDS011;57745;42.524;12.052;2022-07-21T15:17:03;4.85;;;4.05;;